sensor_id;sensor_type;location;lat;lon;timestamp;P1;durP1;ratioP1;P2;durP2;ratioP2
76693;SDS011;65625;52.136;5.424;2023-02-28T00:00:29;5.55;;;2.70;;
76693;SDS011;65625;52.136;5.424;2023-02-28T00:02:56;5.32;;;2.63;;
76693;SDS011;65625;52.136;5.424;2023-02-28T00:05:23;5.22;;;2.38;;
76693;SDS011;65625;52.136;5.424;2023-02-28T00:07:51;6.13;;;2.45;;
76693;SDS011;65625;52.136;5.424;2023-02-28T00:10:19;5.47;;;2.60;;
76693;SDS011;65625;52.136;5.424;2023-02-28T00:12:49;4.68;;;2.42;;
76693;SDS011;65625;52.136;5.424;2023-02-28T00:15:16;5.05;;;2.63;;
76693;SDS011;65625;52.136;5.424;2023-02-28T00:17:44;7.38;;;2.72;;
76693;SDS011;65625;52.136;5.424;2023-02-28T00:20:11;7.15;;;2.63;;
76693;SDS011;65625;52.136;5.424;2023-02-28T00:22:40;6.93;;;2.70;;
76693;SDS011;65625;52.136;5.424;2023-02-28T00:25:12;4.72;;;2.47;;
76693;SDS011;65625;52.136;5.424;2023-02-28T00:27:40;5.88;;;2.20;;
76693;SDS011;65625;52.136;5.424;2023-02-28T00:30:09;5.60;;;2.30;;
76693;SDS011;65625;52.136;5.424;2023-02-28T00:32:38;6.57;;;2.25;;
76693;SDS011;65625;52.136;5.424;2023-02-28T00:35:05;7.05;;;2.28;;
76693;SDS011;65625;52.136;5.424;2023-02-28T00:37:33;5.85;;;2.35;;
76693;SDS011;65625;52.136;5.424;2023-02-28T00:39:59;3.88;;;1.83;;
76693;SDS011;65625;52.136;5.424;2023-02-28T00:42:26;4.78;;;2.35;;
76693;SDS011;65625;52.136;5.424;2023-02-28T00:44:53;5.30;;;1.88;;
76693;SDS011;65625;52.136;5.424;2023-02-28T00:47:20;3.95;;;2.00;;
76693;SDS011;65625;52.136;5.424;2023-02-28T00:49:47;4.47;;;1.80;;
76693;SDS011;65625;52.136;5.424;2023-02-28T00:52:13;6.22;;;1.98;;
76693;SDS011;65625;52.136;5.424;2023-02-28T00:54:40;5.03;;;1.73;;
76693;SDS011;65625;52.136;5.424;2023-02-28T00:57:06;6.18;;;2.78;;
76693;SDS011;65625;52.136;5.424;2023-02-28T00:59:33;7.22;;;2.63;;
76693;SDS011;65625;52.136;5.424;2023-02-28T01:01:59;4.25;;;2.10;;
76693;SDS011;65625;52.136;5.424;2023-02-28T01:04:26;6.35;;;2.65;;
76693;SDS011;65625;52.136;5.424;2023-02-28T01:06:52;4.70;;;2.10;;
76693;SDS011;65625;52.136;5.424;2023-02-28T01:09:19;6.57;;;2.33;;
76693;SDS011;65625;52.136;5.424;2023-02-28T01:11:46;4.53;;;2.15;;
76693;SDS011;65625;52.136;5.424;2023-02-28T01:14:13;4.60;;;2.10;;
76693;SDS011;65625;52.136;5.424;2023-02-28T01:16:40;5.78;;;2.15;;
76693;SDS011;65625;52.136;5.424;2023-02-28T01:19:07;4.30;;;1.90;;
76693;SDS011;65625;52.136;5.424;2023-02-28T01:21:34;3.67;;;1.58;;
76693;SDS011;65625;52.136;5.424;2023-02-28T01:24:02;5.82;;;2.25;;
76693;SDS011;65625;52.136;5.424;2023-02-28T01:26:29;5.10;;;2.25;;
76693;SDS011;65625;52.136;5.424;2023-02-28T01:28:56;5.93;;;1.88;;
76693;SDS011;65625;52.136;5.424;2023-02-28T01:31:24;5.22;;;2.28;;
76693;SDS011;65625;52.136;5.424;2023-02-28T01:33:51;4.70;;;1.98;;
76693;SDS011;65625;52.136;5.424;2023-02-28T01:36:19;4.05;;;2.08;;
76693;SDS011;65625;52.136;5.424;2023-02-28T01:38:48;5.15;;;1.92;;
76693;SDS011;65625;52.136;5.424;2023-02-28T01:41:23;5.55;;;2.20;;
76693;SDS011;65625;52.136;5.424;2023-02-28T01:43:57;4.93;;;2.17;;
76693;SDS011;65625;52.136;5.424;2023-02-28T01:46:35;6.32;;;1.83;;
76693;SDS011;65625;52.136;5.424;2023-02-28T01:49:12;5.93;;;2.00;;
76693;SDS011;65625;52.136;5.424;2023-02-28T01:51:46;5.10;;;1.73;;
76693;SDS011;65625;52.136;5.424;2023-02-28T01:54:30;8.38;;;2.20;;
76693;SDS011;65625;52.136;5.424;2023-02-28T01:57:03;7.13;;;1.90;;
76693;SDS011;65625;52.136;5.424;2023-02-28T01:59:43;4.18;;;1.83;;
76693;SDS011;65625;52.136;5.424;2023-02-28T02:04:56;4.72;;;1.90;;
76693;SDS011;65625;52.136;5.424;2023-02-28T02:07:29;5.93;;;2.00;;
76693;SDS011;65625;52.136;5.424;2023-02-28T02:10:04;3.80;;;1.80;;
76693;SDS011;65625;52.136;5.424;2023-02-28T02:18:17;7.00;;;2.08;;
76693;SDS011;65625;52.136;5.424;2023-02-28T02:23:42;5.75;;;1.92;;
76693;SDS011;65625;52.136;5.424;2023-02-28T02:26:41;4.30;;;2.08;;
76693;SDS011;65625;52.136;5.424;2023-02-28T02:32:32;4.70;;;2.00;;
76693;SDS011;65625;52.136;5.424;2023-02-28T02:34:52;5.50;;;2.00;;
76693;SDS011;65625;52.136;5.424;2023-02-28T02:37:51;3.88;;;2.00;;
76693;SDS011;65625;52.136;5.424;2023-02-28T02:40:26;6.80;;;2.22;;
76693;SDS011;65625;52.136;5.424;2023-02-28T02:43:01;4.75;;;1.80;;
76693;SDS011;65625;52.136;5.424;2023-02-28T02:45:56;6.10;;;2.05;;
76693;SDS011;65625;52.136;5.424;2023-02-28T02:48:43;5.72;;;1.90;;
76693;SDS011;65625;52.136;5.424;2023-02-28T02:51:16;8.20;;;2.25;;
76693;SDS011;65625;52.136;5.424;2023-02-28T02:53:54;8.23;;;2.30;;
76693;SDS011;65625;52.136;5.424;2023-02-28T02:56:27;6.88;;;2.25;;
76693;SDS011;65625;52.136;5.424;2023-02-28T02:58:59;5.47;;;2.13;;
76693;SDS011;65625;52.136;5.424;2023-02-28T03:01:29;6.85;;;2.10;;
76693;SDS011;65625;52.136;5.424;2023-02-28T03:04:00;5.70;;;2.10;;
76693;SDS011;65625;52.136;5.424;2023-02-28T03:06:29;4.97;;;1.98;;
76693;SDS011;65625;52.136;5.424;2023-02-28T03:08:55;7.07;;;2.33;;
76693;SDS011;65625;52.136;5.424;2023-02-28T03:11:22;5.70;;;2.00;;
76693;SDS011;65625;52.136;5.424;2023-02-28T03:21:41;4.15;;;2.05;;
76693;SDS011;65625;52.136;5.424;2023-02-28T03:24:16;11.15;;;2.55;;
76693;SDS011;65625;52.136;5.424;2023-02-28T03:26:51;7.63;;;2.45;;
76693;SDS011;65625;52.136;5.424;2023-02-28T03:34:46;4.38;;;2.00;;
76693;SDS011;65625;52.136;5.424;2023-02-28T03:37:21;5.57;;;2.25;;
76693;SDS011;65625;52.136;5.424;2023-02-28T03:39:56;5.85;;;2.35;;
76693;SDS011;65625;52.136;5.424;2023-02-28T03:42:33;6.10;;;2.08;;
76693;SDS011;65625;52.136;5.424;2023-02-28T03:45:08;4.78;;;1.73;;
76693;SDS011;65625;52.136;5.424;2023-02-28T03:50:37;6.50;;;2.42;;
76693;SDS011;65625;52.136;5.424;2023-02-28T03:55:47;6.13;;;1.77;;
76693;SDS011;65625;52.136;5.424;2023-02-28T03:58:24;3.45;;;1.95;;
76693;SDS011;65625;52.136;5.424;2023-02-28T04:01:00;5.80;;;2.30;;
76693;SDS011;65625;52.136;5.424;2023-02-28T04:03:36;3.28;;;1.88;;
76693;SDS011;65625;52.136;5.424;2023-02-28T04:06:05;4.57;;;2.30;;
76693;SDS011;65625;52.136;5.424;2023-02-28T04:08:34;4.90;;;2.30;;
76693;SDS011;65625;52.136;5.424;2023-02-28T04:11:05;3.55;;;2.08;;
76693;SDS011;65625;52.136;5.424;2023-02-28T04:13:42;8.35;;;2.30;;
76693;SDS011;65625;52.136;5.424;2023-02-28T04:16:11;4.35;;;1.75;;
76693;SDS011;65625;52.136;5.424;2023-02-28T04:18:46;4.45;;;1.88;;
76693;SDS011;65625;52.136;5.424;2023-02-28T04:21:13;4.60;;;1.65;;
76693;SDS011;65625;52.136;5.424;2023-02-28T04:23:39;5.68;;;1.90;;
76693;SDS011;65625;52.136;5.424;2023-02-28T04:26:06;3.78;;;1.70;;
76693;SDS011;65625;52.136;5.424;2023-02-28T04:28:33;2.60;;;1.33;;
76693;SDS011;65625;52.136;5.424;2023-02-28T04:31:02;4.30;;;1.77;;
76693;SDS011;65625;52.136;5.424;2023-02-28T04:33:30;3.90;;;1.58;;
76693;SDS011;65625;52.136;5.424;2023-02-28T04:35:58;4.82;;;1.85;;
76693;SDS011;65625;52.136;5.424;2023-02-28T04:38:32;5.78;;;2.17;;
76693;SDS011;65625;52.136;5.424;2023-02-28T04:41:03;2.95;;;1.45;;
76693;SDS011;65625;52.136;5.424;2023-02-28T04:43:31;3.63;;;1.85;;
76693;SDS011;65625;52.136;5.424;2023-02-28T04:45:58;3.55;;;1.70;;
76693;SDS011;65625;52.136;5.424;2023-02-28T04:48:28;4.63;;;1.60;;
76693;SDS011;65625;52.136;5.424;2023-02-28T04:50:59;3.92;;;1.63;;
76693;SDS011;65625;52.136;5.424;2023-02-28T04:53:36;4.20;;;1.95;;
76693;SDS011;65625;52.136;5.424;2023-02-28T04:56:04;5.57;;;2.15;;
76693;SDS011;65625;52.136;5.424;2023-02-28T04:58:32;3.33;;;1.52;;
76693;SDS011;65625;52.136;5.424;2023-02-28T05:01:06;4.50;;;2.10;;
76693;SDS011;65625;52.136;5.424;2023-02-28T05:03:43;4.93;;;1.77;;
76693;SDS011;65625;52.136;5.424;2023-02-28T05:06:10;4.68;;;1.67;;
76693;SDS011;65625;52.136;5.424;2023-02-28T05:08:38;4.15;;;1.58;;
76693;SDS011;65625;52.136;5.424;2023-02-28T05:11:06;4.15;;;1.80;;
76693;SDS011;65625;52.136;5.424;2023-02-28T05:13:41;4.18;;;1.75;;
76693;SDS011;65625;52.136;5.424;2023-02-28T05:16:08;4.40;;;1.92;;
76693;SDS011;65625;52.136;5.424;2023-02-28T05:18:34;2.85;;;1.52;;
76693;SDS011;65625;52.136;5.424;2023-02-28T05:21:01;4.20;;;1.60;;
76693;SDS011;65625;52.136;5.424;2023-02-28T05:23:28;3.53;;;2.13;;
76693;SDS011;65625;52.136;5.424;2023-02-28T05:25:55;3.03;;;1.73;;
76693;SDS011;65625;52.136;5.424;2023-02-28T05:28:22;4.57;;;1.70;;
76693;SDS011;65625;52.136;5.424;2023-02-28T05:30:49;3.95;;;2.00;;
76693;SDS011;65625;52.136;5.424;2023-02-28T05:33:15;6.90;;;2.08;;
76693;SDS011;65625;52.136;5.424;2023-02-28T05:35:42;4.13;;;1.90;;
76693;SDS011;65625;52.136;5.424;2023-02-28T05:40:38;3.75;;;1.60;;
76693;SDS011;65625;52.136;5.424;2023-02-28T05:43:05;4.00;;;1.63;;
76693;SDS011;65625;52.136;5.424;2023-02-28T05:45:36;5.20;;;2.00;;
76693;SDS011;65625;52.136;5.424;2023-02-28T05:48:02;4.55;;;1.90;;
76693;SDS011;65625;52.136;5.424;2023-02-28T05:50:29;2.92;;;1.70;;
76693;SDS011;65625;52.136;5.424;2023-02-28T05:52:55;4.68;;;1.55;;
76693;SDS011;65625;52.136;5.424;2023-02-28T05:55:22;4.28;;;1.63;;
76693;SDS011;65625;52.136;5.424;2023-02-28T05:57:48;5.07;;;1.98;;
76693;SDS011;65625;52.136;5.424;2023-02-28T06:00:15;5.18;;;1.73;;
76693;SDS011;65625;52.136;5.424;2023-02-28T06:02:43;3.60;;;1.92;;
76693;SDS011;65625;52.136;5.424;2023-02-28T06:05:14;5.40;;;1.88;;
76693;SDS011;65625;52.136;5.424;2023-02-28T06:07:42;4.45;;;2.10;;
76693;SDS011;65625;52.136;5.424;2023-02-28T06:10:10;3.83;;;1.77;;
76693;SDS011;65625;52.136;5.424;2023-02-28T06:12:37;2.53;;;1.50;;
76693;SDS011;65625;52.136;5.424;2023-02-28T06:15:04;5.10;;;1.90;;
76693;SDS011;65625;52.136;5.424;2023-02-28T06:17:31;4.13;;;1.73;;
76693;SDS011;65625;52.136;5.424;2023-02-28T06:19:57;3.97;;;1.83;;
76693;SDS011;65625;52.136;5.424;2023-02-28T06:22:24;5.13;;;2.20;;
76693;SDS011;65625;52.136;5.424;2023-02-28T06:24:50;4.25;;;1.90;;
76693;SDS011;65625;52.136;5.424;2023-02-28T06:27:18;5.55;;;2.13;;
76693;SDS011;65625;52.136;5.424;2023-02-28T06:29:46;5.22;;;2.30;;
76693;SDS011;65625;52.136;5.424;2023-02-28T06:32:13;3.92;;;2.17;;
76693;SDS011;65625;52.136;5.424;2023-02-28T06:34:39;4.20;;;2.38;;
76693;SDS011;65625;52.136;5.424;2023-02-28T06:37:06;4.07;;;2.30;;
76693;SDS011;65625;52.136;5.424;2023-02-28T06:39:33;5.38;;;2.42;;
76693;SDS011;65625;52.136;5.424;2023-02-28T06:42:00;5.05;;;2.33;;
76693;SDS011;65625;52.136;5.424;2023-02-28T06:44:26;5.38;;;2.30;;
76693;SDS011;65625;52.136;5.424;2023-02-28T06:46:53;7.47;;;2.50;;
76693;SDS011;65625;52.136;5.424;2023-02-28T06:49:19;6.90;;;2.70;;
76693;SDS011;65625;52.136;5.424;2023-02-28T06:51:46;4.47;;;2.35;;
76693;SDS011;65625;52.136;5.424;2023-02-28T06:54:12;3.75;;;2.17;;
76693;SDS011;65625;52.136;5.424;2023-02-28T06:56:39;5.60;;;2.53;;
76693;SDS011;65625;52.136;5.424;2023-02-28T06:59:05;5.32;;;2.55;;
76693;SDS011;65625;52.136;5.424;2023-02-28T07:01:32;4.63;;;2.50;;
76693;SDS011;65625;52.136;5.424;2023-02-28T07:03:59;3.88;;;2.20;;
76693;SDS011;65625;52.136;5.424;2023-02-28T07:06:27;9.30;;;2.53;;
76693;SDS011;65625;52.136;5.424;2023-02-28T07:08:54;5.40;;;2.72;;
76693;SDS011;65625;52.136;5.424;2023-02-28T07:11:21;5.93;;;2.95;;
76693;SDS011;65625;52.136;5.424;2023-02-28T07:13:52;4.20;;;2.17;;
76693;SDS011;65625;52.136;5.424;2023-02-28T07:16:22;4.55;;;1.90;;
76693;SDS011;65625;52.136;5.424;2023-02-28T07:18:51;4.75;;;2.10;;
76693;SDS011;65625;52.136;5.424;2023-02-28T07:21:19;4.70;;;2.40;;
76693;SDS011;65625;52.136;5.424;2023-02-28T07:23:45;3.97;;;2.17;;
76693;SDS011;65625;52.136;5.424;2023-02-28T07:26:13;4.72;;;1.92;;
76693;SDS011;65625;52.136;5.424;2023-02-28T07:28:44;3.50;;;2.05;;
76693;SDS011;65625;52.136;5.424;2023-02-28T07:31:11;5.03;;;2.50;;
76693;SDS011;65625;52.136;5.424;2023-02-28T07:33:40;4.40;;;2.17;;
76693;SDS011;65625;52.136;5.424;2023-02-28T07:36:09;5.10;;;2.47;;
76693;SDS011;65625;52.136;5.424;2023-02-28T07:38:42;4.10;;;2.45;;
76693;SDS011;65625;52.136;5.424;2023-02-28T07:41:14;5.75;;;2.38;;
76693;SDS011;65625;52.136;5.424;2023-02-28T07:43:44;5.32;;;2.33;;
76693;SDS011;65625;52.136;5.424;2023-02-28T07:46:13;9.27;;;2.25;;
76693;SDS011;65625;52.136;5.424;2023-02-28T07:48:41;5.90;;;2.40;;
76693;SDS011;65625;52.136;5.424;2023-02-28T07:51:09;4.38;;;2.05;;
76693;SDS011;65625;52.136;5.424;2023-02-28T07:53:35;4.72;;;2.47;;
76693;SDS011;65625;52.136;5.424;2023-02-28T07:56:02;5.05;;;2.67;;
76693;SDS011;65625;52.136;5.424;2023-02-28T07:58:30;4.30;;;2.42;;
76693;SDS011;65625;52.136;5.424;2023-02-28T08:00:57;5.32;;;2.33;;
76693;SDS011;65625;52.136;5.424;2023-02-28T08:03:30;4.07;;;2.55;;
76693;SDS011;65625;52.136;5.424;2023-02-28T08:05:57;5.20;;;2.72;;
76693;SDS011;65625;52.136;5.424;2023-02-28T08:08:23;4.43;;;2.60;;
76693;SDS011;65625;52.136;5.424;2023-02-28T08:10:50;4.38;;;2.53;;
76693;SDS011;65625;52.136;5.424;2023-02-28T08:13:16;5.10;;;2.67;;
76693;SDS011;65625;52.136;5.424;2023-02-28T08:15:43;3.95;;;2.63;;
76693;SDS011;65625;52.136;5.424;2023-02-28T08:18:11;4.85;;;2.90;;
76693;SDS011;65625;52.136;5.424;2023-02-28T08:20:37;5.47;;;2.30;;
76693;SDS011;65625;52.136;5.424;2023-02-28T08:23:04;4.38;;;2.45;;
76693;SDS011;65625;52.136;5.424;2023-02-28T08:25:30;5.30;;;2.83;;
76693;SDS011;65625;52.136;5.424;2023-02-28T08:27:57;4.55;;;2.20;;
76693;SDS011;65625;52.136;5.424;2023-02-28T08:30:24;3.97;;;2.33;;
76693;SDS011;65625;52.136;5.424;2023-02-28T08:32:50;5.05;;;2.58;;
76693;SDS011;65625;52.136;5.424;2023-02-28T08:35:17;4.25;;;2.70;;
76693;SDS011;65625;52.136;5.424;2023-02-28T08:37:43;5.25;;;2.90;;
76693;SDS011;65625;52.136;5.424;2023-02-28T08:40:10;5.13;;;2.47;;
76693;SDS011;65625;52.136;5.424;2023-02-28T08:42:39;4.60;;;2.20;;
76693;SDS011;65625;52.136;5.424;2023-02-28T08:45:05;4.57;;;2.47;;
76693;SDS011;65625;52.136;5.424;2023-02-28T08:47:32;3.75;;;2.20;;
76693;SDS011;65625;52.136;5.424;2023-02-28T08:49:59;6.55;;;2.35;;
76693;SDS011;65625;52.136;5.424;2023-02-28T08:52:25;4.90;;;2.72;;
76693;SDS011;65625;52.136;5.424;2023-02-28T08:54:52;5.78;;;2.08;;
76693;SDS011;65625;52.136;5.424;2023-02-28T08:57:18;5.03;;;2.42;;
76693;SDS011;65625;52.136;5.424;2023-02-28T08:59:45;5.70;;;2.03;;
76693;SDS011;65625;52.136;5.424;2023-02-28T09:02:12;5.07;;;2.30;;
76693;SDS011;65625;52.136;5.424;2023-02-28T09:04:40;3.33;;;2.05;;
76693;SDS011;65625;52.136;5.424;2023-02-28T09:07:07;4.22;;;2.00;;
76693;SDS011;65625;52.136;5.424;2023-02-28T09:09:34;5.10;;;1.70;;
76693;SDS011;65625;52.136;5.424;2023-02-28T09:12:00;4.15;;;1.70;;
76693;SDS011;65625;52.136;5.424;2023-02-28T09:14:28;5.55;;;1.92;;
76693;SDS011;65625;52.136;5.424;2023-02-28T09:16:54;4.63;;;2.03;;
76693;SDS011;65625;52.136;5.424;2023-02-28T09:19:21;5.60;;;1.73;;
76693;SDS011;65625;52.136;5.424;2023-02-28T09:21:48;3.70;;;1.80;;
76693;SDS011;65625;52.136;5.424;2023-02-28T09:24:14;2.15;;;1.13;;
76693;SDS011;65625;52.136;5.424;2023-02-28T09:26:41;2.70;;;1.15;;
76693;SDS011;65625;52.136;5.424;2023-02-28T09:29:28;2.80;;;1.10;;
76693;SDS011;65625;52.136;5.424;2023-02-28T09:31:54;2.08;;;1.23;;
76693;SDS011;65625;52.136;5.424;2023-02-28T09:34:22;2.85;;;1.48;;
76693;SDS011;65625;52.136;5.424;2023-02-28T09:36:48;2.40;;;1.20;;
76693;SDS011;65625;52.136;5.424;2023-02-28T09:39:17;2.40;;;1.00;;
76693;SDS011;65625;52.136;5.424;2023-02-28T09:41:44;2.10;;;1.20;;
76693;SDS011;65625;52.136;5.424;2023-02-28T09:44:22;5.18;;;1.65;;
76693;SDS011;65625;52.136;5.424;2023-02-28T09:47:04;3.25;;;1.20;;
76693;SDS011;65625;52.136;5.424;2023-02-28T09:49:38;2.17;;;1.02;;
76693;SDS011;65625;52.136;5.424;2023-02-28T09:52:42;1.83;;;1.20;;
76693;SDS011;65625;52.136;5.424;2023-02-28T09:57:41;3.25;;;1.45;;
76693;SDS011;65625;52.136;5.424;2023-02-28T10:05:52;4.88;;;1.17;;
76693;SDS011;65625;52.136;5.424;2023-02-28T10:08:25;2.50;;;1.30;;
76693;SDS011;65625;52.136;5.424;2023-02-28T10:11:02;3.33;;;1.00;;
76693;SDS011;65625;52.136;5.424;2023-02-28T10:13:37;2.63;;;1.20;;
76693;SDS011;65625;52.136;5.424;2023-02-28T10:16:18;3.28;;;1.00;;
76693;SDS011;65625;52.136;5.424;2023-02-28T10:18:57;1.75;;;1.10;;
76693;SDS011;65625;52.136;5.424;2023-02-28T10:21:31;2.47;;;1.10;;
76693;SDS011;65625;52.136;5.424;2023-02-28T10:24:05;1.63;;;0.90;;
76693;SDS011;65625;52.136;5.424;2023-02-28T10:26:43;2.75;;;1.10;;
76693;SDS011;65625;52.136;5.424;2023-02-28T10:29:11;3.90;;;1.20;;
76693;SDS011;65625;52.136;5.424;2023-02-28T10:31:37;2.00;;;1.10;;
76693;SDS011;65625;52.136;5.424;2023-02-28T10:34:05;3.30;;;1.13;;
76693;SDS011;65625;52.136;5.424;2023-02-28T10:36:32;2.85;;;1.33;;
76693;SDS011;65625;52.136;5.424;2023-02-28T10:39:01;2.72;;;1.23;;
76693;SDS011;65625;52.136;5.424;2023-02-28T10:44:18;1.98;;;1.08;;
76693;SDS011;65625;52.136;5.424;2023-02-28T10:46:47;2.45;;;1.13;;
76693;SDS011;65625;52.136;5.424;2023-02-28T10:49:17;2.28;;;1.30;;
76693;SDS011;65625;52.136;5.424;2023-02-28T10:51:47;2.70;;;1.25;;
76693;SDS011;65625;52.136;5.424;2023-02-28T10:54:19;2.35;;;1.13;;
76693;SDS011;65625;52.136;5.424;2023-02-28T10:57:06;1.77;;;0.95;;
76693;SDS011;65625;52.136;5.424;2023-02-28T11:00:06;2.30;;;1.05;;
76693;SDS011;65625;52.136;5.424;2023-02-28T11:02:44;2.17;;;1.20;;
76693;SDS011;65625;52.136;5.424;2023-02-28T11:05:23;3.83;;;1.20;;
76693;SDS011;65625;52.136;5.424;2023-02-28T11:07:51;3.38;;;1.17;;
76693;SDS011;65625;52.136;5.424;2023-02-28T11:10:22;2.67;;;1.35;;
76693;SDS011;65625;52.136;5.424;2023-02-28T11:12:56;2.20;;;1.10;;
76693;SDS011;65625;52.136;5.424;2023-02-28T11:15:30;3.10;;;1.10;;
76693;SDS011;65625;52.136;5.424;2023-02-28T11:17:59;2.40;;;1.20;;
76693;SDS011;65625;52.136;5.424;2023-02-28T11:20:29;2.15;;;1.25;;
76693;SDS011;65625;52.136;5.424;2023-02-28T11:22:58;3.00;;;1.35;;
76693;SDS011;65625;52.136;5.424;2023-02-28T11:25:32;1.92;;;1.20;;
76693;SDS011;65625;52.136;5.424;2023-02-28T11:28:01;2.42;;;1.13;;
76693;SDS011;65625;52.136;5.424;2023-02-28T11:30:34;3.72;;;1.50;;
76693;SDS011;65625;52.136;5.424;2023-02-28T11:35:58;2.88;;;1.08;;
76693;SDS011;65625;52.136;5.424;2023-02-28T11:38:28;2.13;;;1.40;;
76693;SDS011;65625;52.136;5.424;2023-02-28T11:51:33;3.17;;;1.23;;
76693;SDS011;65625;52.136;5.424;2023-02-28T12:04:50;2.28;;;1.20;;
76693;SDS011;65625;52.136;5.424;2023-02-28T12:21:29;1.90;;;1.05;;
76693;SDS011;65625;52.136;5.424;2023-02-28T12:26:44;1.50;;;0.90;;
76693;SDS011;65625;52.136;5.424;2023-02-28T12:29:23;2.25;;;1.15;;
76693;SDS011;65625;52.136;5.424;2023-02-28T12:32:17;3.15;;;1.20;;
76693;SDS011;65625;52.136;5.424;2023-02-28T12:35:04;1.52;;;0.82;;
76693;SDS011;65625;52.136;5.424;2023-02-28T12:41:11;2.40;;;1.17;;
76693;SDS011;65625;52.136;5.424;2023-02-28T12:43:25;2.00;;;1.02;;
76693;SDS011;65625;52.136;5.424;2023-02-28T12:45:59;2.50;;;1.10;;
76693;SDS011;65625;52.136;5.424;2023-02-28T12:51:10;1.75;;;0.90;;
76693;SDS011;65625;52.136;5.424;2023-02-28T12:56:44;2.35;;;1.13;;
76693;SDS011;65625;52.136;5.424;2023-02-28T13:10:51;2.10;;;1.08;;
76693;SDS011;65625;52.136;5.424;2023-02-28T13:13:25;2.75;;;1.05;;
76693;SDS011;65625;52.136;5.424;2023-02-28T13:21:03;2.90;;;1.00;;
76693;SDS011;65625;52.136;5.424;2023-02-28T13:26:07;4.38;;;1.40;;
76693;SDS011;65625;52.136;5.424;2023-02-28T13:31:15;3.70;;;1.33;;
76693;SDS011;65625;52.136;5.424;2023-02-28T13:41:49;1.80;;;0.90;;
76693;SDS011;65625;52.136;5.424;2023-02-28T13:44:22;3.05;;;1.23;;
76693;SDS011;65625;52.136;5.424;2023-02-28T13:51:49;2.33;;;1.27;;
76693;SDS011;65625;52.136;5.424;2023-02-28T13:54:24;1.50;;;0.95;;
76693;SDS011;65625;52.136;5.424;2023-02-28T13:57:11;2.63;;;1.42;;
76693;SDS011;65625;52.136;5.424;2023-02-28T14:11:29;2.60;;;1.38;;
76693;SDS011;65625;52.136;5.424;2023-02-28T14:14:00;2.38;;;1.15;;
76693;SDS011;65625;52.136;5.424;2023-02-28T14:16:47;3.28;;;1.38;;
76693;SDS011;65625;52.136;5.424;2023-02-28T14:19:21;1.77;;;0.90;;
76693;SDS011;65625;52.136;5.424;2023-02-28T14:24:54;2.25;;;1.35;;
76693;SDS011;65625;52.136;5.424;2023-02-28T14:30:18;3.35;;;1.17;;
76693;SDS011;65625;52.136;5.424;2023-02-28T14:38:42;4.03;;;1.58;;
76693;SDS011;65625;52.136;5.424;2023-02-28T14:41:17;2.33;;;1.05;;
76693;SDS011;65625;52.136;5.424;2023-02-28T14:52:19;2.00;;;1.20;;
76693;SDS011;65625;52.136;5.424;2023-02-28T14:54:52;3.47;;;1.25;;
76693;SDS011;65625;52.136;5.424;2023-02-28T14:57:28;4.30;;;1.40;;
76693;SDS011;65625;52.136;5.424;2023-02-28T15:00:04;3.13;;;1.25;;
76693;SDS011;65625;52.136;5.424;2023-02-28T15:02:39;3.92;;;1.30;;
76693;SDS011;65625;52.136;5.424;2023-02-28T15:07:43;2.75;;;1.30;;
76693;SDS011;65625;52.136;5.424;2023-02-28T15:10:20;4.40;;;1.58;;
76693;SDS011;65625;52.136;5.424;2023-02-28T15:12:55;3.72;;;1.30;;
76693;SDS011;65625;52.136;5.424;2023-02-28T15:15:35;2.03;;;1.20;;
76693;SDS011;65625;52.136;5.424;2023-02-28T15:18:30;3.13;;;1.30;;
76693;SDS011;65625;52.136;5.424;2023-02-28T15:21:08;2.40;;;1.38;;
76693;SDS011;65625;52.136;5.424;2023-02-28T15:23:44;2.88;;;1.30;;
76693;SDS011;65625;52.136;5.424;2023-02-28T15:26:16;4.63;;;1.50;;
76693;SDS011;65625;52.136;5.424;2023-02-28T15:28:46;4.03;;;1.35;;
76693;SDS011;65625;52.136;5.424;2023-02-28T15:31:21;2.10;;;0.93;;
76693;SDS011;65625;52.136;5.424;2023-02-28T15:33:53;1.90;;;1.10;;
76693;SDS011;65625;52.136;5.424;2023-02-28T15:36:24;2.22;;;1.25;;
76693;SDS011;65625;52.136;5.424;2023-02-28T15:38:54;2.15;;;1.13;;
76693;SDS011;65625;52.136;5.424;2023-02-28T15:41:28;4.35;;;1.38;;
76693;SDS011;65625;52.136;5.424;2023-02-28T15:47:01;3.35;;;1.30;;
76693;SDS011;65625;52.136;5.424;2023-02-28T15:49:39;3.80;;;1.13;;
76693;SDS011;65625;52.136;5.424;2023-02-28T15:52:33;2.30;;;1.10;;
76693;SDS011;65625;52.136;5.424;2023-02-28T15:55:11;7.40;;;1.42;;
76693;SDS011;65625;52.136;5.424;2023-02-28T15:57:46;1.80;;;1.20;;
76693;SDS011;65625;52.136;5.424;2023-02-28T16:00:15;2.67;;;0.93;;
76693;SDS011;65625;52.136;5.424;2023-02-28T16:02:45;2.50;;;1.10;;
76693;SDS011;65625;52.136;5.424;2023-02-28T16:05:19;1.70;;;1.10;;
76693;SDS011;65625;52.136;5.424;2023-02-28T16:07:54;1.98;;;1.25;;
76693;SDS011;65625;52.136;5.424;2023-02-28T16:10:22;4.50;;;1.50;;
76693;SDS011;65625;52.136;5.424;2023-02-28T16:12:52;2.53;;;1.25;;
76693;SDS011;65625;52.136;5.424;2023-02-28T16:17:49;1.90;;;1.23;;
76693;SDS011;65625;52.136;5.424;2023-02-28T16:20:16;2.90;;;1.48;;
76693;SDS011;65625;52.136;5.424;2023-02-28T16:22:45;2.72;;;1.20;;
76693;SDS011;65625;52.136;5.424;2023-02-28T16:25:16;2.05;;;1.23;;
76693;SDS011;65625;52.136;5.424;2023-02-28T16:27:44;2.28;;;1.20;;
76693;SDS011;65625;52.136;5.424;2023-02-28T16:30:21;2.20;;;1.33;;
76693;SDS011;65625;52.136;5.424;2023-02-28T16:32:49;2.58;;;1.42;;
76693;SDS011;65625;52.136;5.424;2023-02-28T16:35:18;5.50;;;1.75;;
76693;SDS011;65625;52.136;5.424;2023-02-28T16:37:45;3.95;;;1.58;;
76693;SDS011;65625;52.136;5.424;2023-02-28T16:40:15;5.70;;;1.42;;
76693;SDS011;65625;52.136;5.424;2023-02-28T16:42:44;3.55;;;1.33;;
76693;SDS011;65625;52.136;5.424;2023-02-28T16:45:15;3.33;;;1.60;;
76693;SDS011;65625;52.136;5.424;2023-02-28T16:47:45;5.05;;;1.65;;
76693;SDS011;65625;52.136;5.424;2023-02-28T16:50:13;6.85;;;1.73;;
76693;SDS011;65625;52.136;5.424;2023-02-28T16:52:42;4.65;;;1.83;;
76693;SDS011;65625;52.136;5.424;2023-02-28T16:55:09;3.65;;;1.60;;
76693;SDS011;65625;52.136;5.424;2023-02-28T16:57:35;3.75;;;1.70;;
76693;SDS011;65625;52.136;5.424;2023-02-28T17:00:03;3.75;;;1.92;;
76693;SDS011;65625;52.136;5.424;2023-02-28T17:02:31;2.90;;;1.50;;
76693;SDS011;65625;52.136;5.424;2023-02-28T17:04:57;5.32;;;2.13;;
76693;SDS011;65625;52.136;5.424;2023-02-28T17:07:24;4.40;;;1.48;;
76693;SDS011;65625;52.136;5.424;2023-02-28T17:09:51;3.13;;;1.92;;
76693;SDS011;65625;52.136;5.424;2023-02-28T17:12:17;2.65;;;1.52;;
76693;SDS011;65625;52.136;5.424;2023-02-28T17:14:43;6.65;;;3.55;;
76693;SDS011;65625;52.136;5.424;2023-02-28T17:17:15;4.22;;;2.45;;
76693;SDS011;65625;52.136;5.424;2023-02-28T17:19:44;5.97;;;2.95;;
76693;SDS011;65625;52.136;5.424;2023-02-28T17:22:10;6.63;;;2.80;;
76693;SDS011;65625;52.136;5.424;2023-02-28T17:24:37;6.80;;;2.83;;
76693;SDS011;65625;52.136;5.424;2023-02-28T17:27:03;9.52;;;2.83;;
76693;SDS011;65625;52.136;5.424;2023-02-28T17:29:30;7.65;;;3.00;;
76693;SDS011;65625;52.136;5.424;2023-02-28T17:31:56;7.43;;;3.10;;
76693;SDS011;65625;52.136;5.424;2023-02-28T17:34:28;8.30;;;3.50;;
76693;SDS011;65625;52.136;5.424;2023-02-28T17:36:54;6.90;;;3.17;;
76693;SDS011;65625;52.136;5.424;2023-02-28T17:39:21;6.72;;;3.65;;
76693;SDS011;65625;52.136;5.424;2023-02-28T17:41:54;6.82;;;3.40;;
76693;SDS011;65625;52.136;5.424;2023-02-28T17:44:21;6.25;;;3.60;;
76693;SDS011;65625;52.136;5.424;2023-02-28T17:46:53;5.72;;;2.95;;
76693;SDS011;65625;52.136;5.424;2023-02-28T17:49:21;4.40;;;2.67;;
76693;SDS011;65625;52.136;5.424;2023-02-28T17:51:48;6.38;;;3.20;;
76693;SDS011;65625;52.136;5.424;2023-02-28T17:54:15;4.47;;;2.53;;
76693;SDS011;65625;52.136;5.424;2023-02-28T17:56:44;4.65;;;2.53;;
76693;SDS011;65625;52.136;5.424;2023-02-28T17:59:10;8.40;;;3.28;;